Monday, July 28, 2014
10:27 UTC
  |  Log In   |  Register Free
Airport Search:

Smithville Municipal Airport
(0A3)

Smithville Municipal Airport Diagram
No Airport Diagram Available

FAA data valid effective July 24, 2014 until September 18, 2014 (unless otherwise noted).

 
 
 
 
 
 
 
 
 
 
 
 
 
 

Current Aviation Weather for Smithville Municipal Airport (0A3)

The most recent METAR observation for KSRB was updated at: 0955 UTC
METAR Summary (Translated METAR)
KSRB
280955Z AUTO 00000KT 2SM SCT001 19/19 A2995 RMK
KCSV
(22.5 nm SE from KSRB)
280940Z AUTO 24003KT 3SM -RA BR BKN002 19/18 A2998 RMK AO2 P0000 T01940178
TAF Summary (Translated TAF)
KCSV
(22.5 nm SE from KSRB)
280902Z 2809/2906 VRB04KT 5SM BR FEW004 BKN070 TEMPO 2809/2812 1SM BR BKN002 FM281300 31010G16KT P6SM FEW040
  Airport Weather Conditions for 0A3

Current weather conditions are
not available for 0A3


The nearest NOAA weather station
is at SRB, (14.2 nm NE from 0A3)
  
 Current Weather at SRB
66° F
Partly Cloudy
North winds at 0.0 mph
SRB NOAA Radar

Pressure: 29.95 in
Humidity: 100%
Wind: Calm
Dew Point: 66.2°F
Visibility: 2.00 mi


Airport Weather Forecast for 0A3

Translated METAR and TAF for KSRB
Translated METAR for KSRB (1020 UTC 28 July 2014)
found at http://aviationweather.gov/adds/metars/
 
METAR text: KSRB 281015Z AUTO 35003KT 10SM CLR 19/19 A2996 RMK
Conditions at: KSRB (SPARTA , TN, US) observed 1015 UTC 28 July 2014
Temperature: 19.0°C (66°F)
Dewpoint: 19.0°C (66°F) [RH = 100%]
Pressure (altimeter): 29.96 inches Hg (1014.6 mb)
Winds: from the N (350 degrees) at 3 MPH (3 knots; 1.6 m/s)
Visibility: 10 or more miles (16+ km)
Ceiling: at least 12,000 feet AGL
Clouds: sky clear below 12,000 feet AGL
Weather: no significant weather observed at this time
Translated TAF for KSRB

There is no translated TAF available for this airport

Find All Airport Services Find A Hotel Find A Rental Car Find A Golf Course Find A Restaurant $100 Hamburger



FBO's on the Field
FBO Company Facility Photos Services Transportation Aviation Fuel Prices: Prices include tax
Catering Weather Repair Courtesy Rental Type 100LL JetA JetA+ MOGAS 8087
 
Smithville Municipal Airport

This FBO has not yet been rated
FS:Shell
Last Updated: Jun-30
Login to update fuel prices
SS:
Contact Smithville Municipal AirportMore FBO Information
 
Add another FBO Facility Photos Catering Weather Repair Courtesy Rental Type 100LL JetA JetA+ MOGAS 8087
Services Transportation Aviation Fuel Prices: Prices include tax


GlobalAir.com Airport Resource Center model-print
model-print
model-print
model-print